Bruck An Der Mur, Austria
Current Conditions -  °F | °C
As of 11:50 PM on Wednesday 22 Oct 2014 (Local Time) from LOWG Reporting Station
Broken Clouds Broken Clouds  
Wind Chill: 35°   Ceiling: 10000
Heat Index: 39°   Visibility: 6mi
Dew Point: 36°   Wind: 6mph
Humidity: 87%   Direction: 130°SE
Pressure: 29.74"   Gusts: NA
Location:  47.42°N, 15.27°E
Report Text: LOWG 222150Z AUTO 13005KT 090V210 9999 FEW050 BKN100 04/02 Q1007
Loading
Personal Weather Stations






























Interactive Weather Map
Tropical Storm Tracking
New forecast layout! Learn more

10-Day Weather Forecast

Advertisements
Track Severe Weather on mobile